Time;durP1;ratioP1;P1;durP2;ratioP2;P2;SDS_P1;SDS_P2;PMS_P1;PMS_P2;Temp;Humidity;BMP_temperature;BMP_pressure;BME280_temperature;BME280_humidity;BME280_pressure;Samples;Min_cycle;Max_cycle;Signal;HPM_P1;HPM_P2
2023/10/06 00:00:39;;;;;;;8.40;6.67;;;14.30;99.90;;;;;;4990406;28;21041;-61
2023/10/06 00:03:10;;;;;;;7.80;6.10;;;14.30;99.90;;;;;;4987426;28;21122;-61
2023/10/06 00:05:40;;;;;;;8.13;7.10;;;14.30;99.90;;;;;;4982084;28;20499;-61
2023/10/06 00:08:10;;;;;;;9.90;7.07;;;14.30;99.90;;;;;;4985454;28;20483;-62
2023/10/06 00:10:44;;;;;;;13.23;7.37;;;14.30;99.90;;;;;;4984562;28;20902;-61
2023/10/06 00:13:18;;;;;;;8.30;6.80;;;14.30;99.90;;;;;;4980984;28;20581;-62
2023/10/06 00:15:49;;;;;;;7.77;6.17;;;14.20;99.90;;;;;;4984748;28;21253;-62
2023/10/06 00:18:20;;;;;;;12.27;7.43;;;14.20;99.90;;;;;;4985207;28;20757;-61
2023/10/06 00:20:50;;;;;;;8.03;7.23;;;14.20;99.90;;;;;;4986189;28;20472;-61
2023/10/06 00:23:21;;;;;;;9.17;6.67;;;14.20;99.90;;;;;;4996945;28;20493;-61
2023/10/06 00:25:52;;;;;;;7.33;6.63;;;14.20;99.90;;;;;;4994936;28;20493;-61
2023/10/06 00:28:22;;;;;;;8.80;6.63;;;14.20;99.90;;;;;;4981666;28;20503;-61
2023/10/06 00:30:55;;;;;;;9.80;7.77;;;14.20;99.90;;;;;;4986419;28;20481;-61
2023/10/06 00:33:27;;;;;;;8.47;7.03;;;14.30;99.90;;;;;;4980963;28;20587;-61
2023/10/06 00:35:57;;;;;;;12.60;8.30;;;14.30;99.90;;;;;;4983171;28;20489;-61
2023/10/06 00:38:27;;;;;;;12.47;8.10;;;14.20;99.90;;;;;;4981439;28;20477;-62
2023/10/06 00:40:55;;;;;;;9.40;8.50;;;14.20;99.90;;;;;;4983693;28;20481;-61
2023/10/06 00:43:34;;;;;;;9.93;8.37;;;14.20;99.90;;;;;;4982111;28;22453;-61
2023/10/06 00:46:06;;;;;;;12.90;8.20;;;14.20;99.90;;;;;;4980951;28;20497;-62
2023/10/06 00:48:39;;;;;;;12.10;8.40;;;14.20;99.90;;;;;;4987320;28;20482;-61
2023/10/06 00:51:15;;;;;;;8.60;7.53;;;14.20;99.90;;;;;;4982712;28;20483;-61
2023/10/06 00:53:46;;;;;;;10.50;8.10;;;14.20;99.90;;;;;;4993139;28;20495;-61
2023/10/06 00:56:15;;;;;;;11.77;8.50;;;14.20;99.90;;;;;;4983033;28;20576;-61
2023/10/06 00:58:44;;;;;;;8.67;7.50;;;14.20;99.90;;;;;;4982805;28;20500;-62
2023/10/06 01:01:13;;;;;;;10.27;7.90;;;14.20;99.90;;;;;;4983325;28;20473;-61
2023/10/06 01:03:43;;;;;;;12.70;8.77;;;14.20;99.90;;;;;;4989467;28;20495;-61
2023/10/06 01:06:16;;;;;;;10.13;8.83;;;14.20;99.90;;;;;;4987295;28;20994;-61
2023/10/06 01:08:52;;;;;;;9.10;8.20;;;14.20;99.90;;;;;;4991792;28;20567;-62
2023/10/06 01:11:26;;;;;;;9.40;8.50;;;14.10;99.90;;;;;;4994322;28;20479;-61
2023/10/06 01:13:55;;;;;;;11.73;8.47;;;14.10;99.90;;;;;;4972871;28;21017;-62
2023/10/06 01:16:26;;;;;;;9.83;7.43;;;14.10;99.90;;;;;;4981625;28;20496;-61
2023/10/06 01:19:00;;;;;;;10.90;9.10;;;14.10;99.90;;;;;;4990334;28;20530;-61
2023/10/06 01:21:30;;;;;;;10.80;8.77;;;14.10;99.90;;;;;;4986809;28;20473;-61
2023/10/06 01:24:11;;;;;;;11.43;9.50;;;14.10;99.90;;;;;;4995217;28;20497;-61
2023/10/06 01:26:41;;;;;;;9.43;8.37;;;14.10;99.90;;;;;;4994303;28;20492;-61
2023/10/06 01:29:11;;;;;;;10.50;8.57;;;14.00;99.90;;;;;;4989787;28;20839;-61
2023/10/06 01:31:40;;;;;;;9.80;8.30;;;14.00;99.90;;;;;;4994296;28;20835;-61
2023/10/06 01:34:11;;;;;;;10.87;8.70;;;14.00;99.90;;;;;;4991258;28;20488;-61
2023/10/06 01:36:39;;;;;;;9.93;8.93;;;14.00;99.90;;;;;;4991998;28;20499;-61
2023/10/06 01:39:16;;;;;;;14.40;9.70;;;14.00;99.90;;;;;;4993704;28;20586;-61
2023/10/06 01:41:47;;;;;;;14.33;10.97;;;14.00;99.90;;;;;;4995008;28;21032;-61
2023/10/06 01:44:15;;;;;;;13.13;10.77;;;14.00;99.90;;;;;;4992157;28;20532;-61
2023/10/06 01:46:52;;;;;;;11.23;9.60;;;14.00;99.90;;;;;;4997163;28;20564;-61
2023/10/06 01:49:21;;;;;;;11.23;10.03;;;14.00;99.90;;;;;;4992774;28;20495;-61
2023/10/06 01:51:50;;;;;;;14.80;10.83;;;14.00;99.90;;;;;;4989992;28;20858;-62
2023/10/06 01:54:37;;;;;;;13.87;10.20;;;14.00;99.90;;;;;;4992614;28;20489;-61
2023/10/06 01:57:06;;;;;;;12.17;9.70;;;14.00;99.90;;;;;;4994135;28;20967;-61
2023/10/06 01:59:35;;;;;;;13.50;10.40;;;14.00;99.90;;;;;;4984468;28;20507;-61
2023/10/06 02:02:07;;;;;;;12.70;9.97;;;13.90;99.90;;;;;;4989573;28;20478;-61
2023/10/06 02:04:44;;;;;;;11.37;10.03;;;13.90;99.90;;;;;;4996336;28;20484;-61
2023/10/06 02:07:13;;;;;;;11.63;10.40;;;13.90;99.90;;;;;;4987517;28;20565;-61
2023/10/06 02:09:43;;;;;;;10.10;8.90;;;14.00;99.90;;;;;;4987737;28;20465;-61
2023/10/06 02:12:12;;;;;;;14.63;10.63;;;14.00;99.90;;;;;;4993850;28;20473;-61
2023/10/06 02:14:41;;;;;;;13.80;10.93;;;14.00;99.90;;;;;;4990753;28;20561;-61
2023/10/06 02:17:11;;;;;;;14.30;9.27;;;14.00;99.90;;;;;;4982946;28;20560;-61
2023/10/06 02:19:42;;;;;;;13.87;10.60;;;13.90;99.90;;;;;;4984367;28;20583;-62
2023/10/06 02:22:11;;;;;;;12.23;10.50;;;13.90;99.90;;;;;;4989824;28;20499;-61
2023/10/06 02:24:39;;;;;;;11.37;9.70;;;13.90;99.90;;;;;;4991427;28;20490;-62
2023/10/06 02:27:10;;;;;;;13.00;9.80;;;13.90;99.90;;;;;;4995065;28;20505;-62
2023/10/06 02:29:38;;;;;;;12.80;10.40;;;13.90;99.90;;;;;;4993961;28;20484;-61
2023/10/06 02:32:07;;;;;;;13.90;11.00;;;13.90;99.90;;;;;;4992987;28;20552;-61
2023/10/06 02:34:38;;;;;;;12.93;10.63;;;13.90;99.90;;;;;;4992560;28;20507;-61
2023/10/06 02:37:07;;;;;;;13.10;10.00;;;13.90;99.90;;;;;;4993591;28;20476;-61
2023/10/06 02:39:38;;;;;;;12.70;9.80;;;13.90;99.90;;;;;;4990533;28;20488;-61
2023/10/06 02:42:09;;;;;;;13.07;10.60;;;13.90;99.90;;;;;;4996150;28;20487;-61
2023/10/06 02:44:40;;;;;;;11.90;10.10;;;13.90;99.90;;;;;;4994908;28;20484;-61
2023/10/06 02:47:09;;;;;;;13.50;10.90;;;13.90;99.90;;;;;;4994433;28;20912;-61
2023/10/06 02:49:40;;;;;;;13.77;9.90;;;13.90;99.90;;;;;;4992889;28;20468;-61
2023/10/06 02:52:20;;;;;;;12.87;10.17;;;13.90;99.90;;;;;;4996298;28;20468;-62
2023/10/06 02:54:56;;;;;;;14.23;10.10;;;13.80;99.90;;;;;;4990073;28;20488;-61
2023/10/06 02:57:26;;;;;;;13.53;9.90;;;13.80;99.90;;;;;;4995079;28;20476;-61
2023/10/06 02:59:57;;;;;;;14.23;10.00;;;13.80;99.90;;;;;;4992803;28;20499;-61
2023/10/06 03:02:26;;;;;;;10.23;8.80;;;13.80;99.90;;;;;;4991721;28;20554;-62
2023/10/06 03:05:10;;;;;;;13.57;10.40;;;13.80;99.90;;;;;;4981078;28;20493;-61
2023/10/06 03:07:38;;;;;;;12.47;9.17;;;13.80;99.90;;;;;;4989816;28;20964;-61
2023/10/06 03:10:08;;;;;;;12.53;9.17;;;13.80;99.90;;;;;;4991255;28;20465;-61
2023/10/06 03:12:39;;;;;;;13.37;9.90;;;13.80;99.90;;;;;;4990138;28;20497;-61
2023/10/06 03:15:28;;;;;;;10.40;9.30;;;13.80;99.90;;;;;;4990121;28;20496;-62
2023/10/06 03:17:58;;;;;;;13.63;10.10;;;13.80;99.90;;;;;;4994460;28;20972;-61
2023/10/06 03:20:29;;;;;;;10.53;9.10;;;13.90;99.90;;;;;;4993287;28;20536;-61
2023/10/06 03:22:57;;;;;;;10.60;9.30;;;13.90;99.90;;;;;;4991331;28;20499;-62
2023/10/06 03:25:28;;;;;;;12.90;10.13;;;13.90;99.90;;;;;;4986752;28;20480;-62
2023/10/06 03:27:57;;;;;;;10.43;8.57;;;13.90;99.90;;;;;;4992499;28;20534;-62
2023/10/06 03:30:28;;;;;;;13.30;9.20;;;13.90;99.90;;;;;;4990666;28;20488;-62
2023/10/06 03:32:57;;;;;;;11.17;9.90;;;13.90;99.90;;;;;;4995102;28;20494;-62
2023/10/06 03:35:36;;;;;;;11.37;8.83;;;13.90;99.90;;;;;;4995147;28;21025;-62
2023/10/06 03:38:27;;;;;;;13.23;10.20;;;13.80;99.90;;;;;;4997551;28;20642;-62
2023/10/06 03:41:09;;;;;;;10.50;9.40;;;13.80;99.90;;;;;;4999862;28;20492;-62
2023/10/06 03:43:40;;;;;;;16.20;10.40;;;13.80;99.90;;;;;;5000534;28;20847;-62
2023/10/06 03:46:12;;;;;;;16.47;10.90;;;13.80;99.90;;;;;;4994380;28;20881;-62
2023/10/06 03:48:40;;;;;;;13.67;10.40;;;13.80;99.90;;;;;;4995814;28;20472;-62
2023/10/06 03:51:09;;;;;;;11.17;9.93;;;13.70;99.90;;;;;;4997203;28;20534;-62
2023/10/06 03:53:37;;;;;;;12.63;10.53;;;13.70;99.90;;;;;;4993154;28;20577;-62
2023/10/06 03:56:06;;;;;;;14.10;11.20;;;13.80;99.90;;;;;;4994264;28;20493;-62
2023/10/06 03:58:34;;;;;;;12.23;10.93;;;13.80;99.90;;;;;;4994165;28;20479;-62
2023/10/06 04:01:09;;;;;;;14.20;10.90;;;13.80;99.90;;;;;;4995086;28;20583;-62
2023/10/06 04:03:38;;;;;;;14.13;10.77;;;13.80;99.90;;;;;;4994251;28;20883;-62
2023/10/06 04:06:12;;;;;;;14.93;11.67;;;13.90;99.90;;;;;;4993815;28;20481;-62
2023/10/06 04:08:44;;;;;;;13.13;11.83;;;13.90;99.90;;;;;;4998713;28;20503;-62
2023/10/06 04:11:14;;;;;;;12.50;11.20;;;13.90;99.90;;;;;;4986450;28;20469;-62
2023/10/06 04:13:43;;;;;;;13.20;11.70;;;13.80;99.90;;;;;;4988633;28;20503;-62
2023/10/06 04:16:14;;;;;;;12.23;10.93;;;13.90;99.90;;;;;;4989316;28;20567;-62
2023/10/06 04:18:47;;;;;;;15.40;12.27;;;13.90;99.90;;;;;;4996059;28;20779;-62
2023/10/06 04:21:16;;;;;;;12.60;11.27;;;13.90;99.90;;;;;;4997380;28;20489;-62
2023/10/06 04:23:44;;;;;;;12.93;11.60;;;13.90;99.90;;;;;;4993859;28;21290;-62
2023/10/06 04:26:15;;;;;;;12.73;11.50;;;13.90;99.90;;;;;;4997012;28;20540;-62
2023/10/06 04:28:46;;;;;;;15.97;12.20;;;13.90;99.90;;;;;;4998199;28;20472;-62
2023/10/06 04:31:16;;;;;;;12.23;10.90;;;13.80;99.90;;;;;;4999235;28;20461;-62
2023/10/06 04:33:44;;;;;;;14.50;11.90;;;13.80;99.90;;;;;;4997243;28;20501;-62
2023/10/06 04:36:20;;;;;;;13.10;11.60;;;13.80;99.90;;;;;;4994338;28;20498;-62
2023/10/06 04:38:48;;;;;;;12.80;11.50;;;13.90;99.90;;;;;;4997803;28;20538;-62
2023/10/06 04:41:20;;;;;;;13.17;11.70;;;13.90;99.90;;;;;;4995860;28;21088;-62
2023/10/06 04:43:48;;;;;;;18.40;13.17;;;13.90;99.90;;;;;;4994826;28;20820;-62
2023/10/06 04:46:17;;;;;;;13.37;12.03;;;13.80;99.90;;;;;;4997284;28;20540;-62
2023/10/06 04:48:47;;;;;;;13.40;12.00;;;13.90;99.90;;;;;;4993081;28;20501;-62
2023/10/06 04:51:16;;;;;;;13.03;11.67;;;13.90;99.90;;;;;;4991763;28;20480;-62
2023/10/06 04:53:46;;;;;;;13.60;12.03;;;13.90;99.90;;;;;;4996842;28;20516;-62
2023/10/06 04:56:14;;;;;;;12.57;10.83;;;13.80;99.90;;;;;;4994708;28;20492;-62
2023/10/06 04:58:42;;;;;;;11.47;10.27;;;13.80;99.90;;;;;;4988351;28;20484;-61
2023/10/06 05:01:11;;;;;;;11.83;10.63;;;13.80;99.90;;;;;;4990155;28;20503;-62
2023/10/06 05:03:43;;;;;;;14.23;10.53;;;13.80;99.90;;;;;;4991349;28;20508;-62
2023/10/06 05:06:13;;;;;;;11.90;10.70;;;13.80;99.90;;;;;;4992927;28;20496;-62
2023/10/06 05:08:42;;;;;;;11.43;10.27;;;13.80;99.90;;;;;;4994840;28;20930;-62
2023/10/06 05:11:12;;;;;;;12.70;9.97;;;13.80;99.90;;;;;;4991455;28;20943;-63
2023/10/06 05:13:40;;;;;;;12.00;9.40;;;13.80;99.90;;;;;;4996348;28;20492;-62
2023/10/06 05:16:11;;;;;;;16.80;10.10;;;13.90;99.90;;;;;;4993176;28;20485;-62
2023/10/06 05:18:40;;;;;;;12.00;10.43;;;13.80;99.90;;;;;;4984646;28;20469;-62
2023/10/06 05:21:09;;;;;;;10.83;9.73;;;13.80;99.90;;;;;;4983315;28;21642;-62
2023/10/06 05:23:37;;;;;;;11.90;8.97;;;13.80;99.90;;;;;;4976111;28;22171;-62
2023/10/06 05:26:08;;;;;;;10.00;9.00;;;13.80;99.90;;;;;;4975748;28;20508;-62
2023/10/06 05:28:37;;;;;;;11.43;10.23;;;13.80;99.90;;;;;;4990162;28;20473;-62
2023/10/06 05:31:07;;;;;;;9.80;8.80;;;13.80;99.90;;;;;;4990083;28;20473;-62
2023/10/06 05:33:35;;;;;;;10.67;9.10;;;13.80;99.90;;;;;;4989814;28;20493;-63
2023/10/06 05:36:10;;;;;;;10.90;8.30;;;13.80;99.90;;;;;;4983533;28;20591;-62
2023/10/06 05:38:40;;;;;;;9.10;8.20;;;13.80;99.90;;;;;;4982317;28;20473;-62
2023/10/06 05:41:11;;;;;;;8.23;7.40;;;13.90;99.90;;;;;;4983248;28;20971;-61
2023/10/06 05:43:40;;;;;;;8.33;7.60;;;13.90;99.90;;;;;;4988752;28;20492;-62
2023/10/06 05:46:10;;;;;;;9.77;7.43;;;13.90;99.90;;;;;;4983651;28;20554;-62
2023/10/06 05:48:39;;;;;;;10.43;8.00;;;13.80;99.90;;;;;;4993616;28;20492;-61
2023/10/06 05:51:09;;;;;;;11.40;7.80;;;13.80;99.90;;;;;;4986108;28;20484;-62
2023/10/06 05:53:42;;;;;;;11.80;7.30;;;13.80;99.90;;;;;;4992833;28;20501;-62
2023/10/06 05:56:11;;;;;;;10.30;8.03;;;13.80;99.90;;;;;;4991809;28;20493;-62
2023/10/06 05:58:40;;;;;;;9.63;7.90;;;13.90;99.90;;;;;;4993416;28;20473;-62
2023/10/06 06:01:13;;;;;;;9.00;7.20;;;13.90;99.90;;;;;;4983215;28;20473;-62
2023/10/06 06:03:45;;;;;;;9.10;7.33;;;13.90;99.90;;;;;;4994862;28;20527;-62
2023/10/06 06:06:15;;;;;;;8.23;6.70;;;13.90;99.90;;;;;;4991933;28;20498;-62
2023/10/06 06:08:47;;;;;;;8.07;7.07;;;13.90;99.90;;;;;;4991128;28;20485;-62
2023/10/06 06:11:16;;;;;;;7.50;6.60;;;13.90;99.90;;;;;;4995701;28;20482;-62
2023/10/06 06:13:44;;;;;;;12.27;7.57;;;13.90;99.90;;;;;;4996426;28;20495;-62
2023/10/06 06:16:26;;;;;;;11.87;7.53;;;13.90;99.90;;;;;;4988311;28;20863;-62
2023/10/06 06:18:54;;;;;;;9.13;6.80;;;14.00;99.90;;;;;;4991408;28;21233;-62
2023/10/06 06:21:24;;;;;;;9.07;6.87;;;14.00;99.90;;;;;;4992594;28;20963;-62
2023/10/06 06:23:57;;;;;;;7.63;6.70;;;14.00;99.90;;;;;;4992755;28;20484;-62
2023/10/06 06:26:25;;;;;;;9.00;6.80;;;14.00;99.90;;;;;;4994000;28;20481;-62
2023/10/06 06:28:53;;;;;;;8.40;7.13;;;13.90;99.90;;;;;;4993297;28;20559;-62
2023/10/06 06:31:22;;;;;;;7.53;6.50;;;13.90;99.90;;;;;;4990380;28;20895;-62
2023/10/06 06:33:56;;;;;;;8.43;7.57;;;13.90;99.90;;;;;;4992321;28;20485;-62
2023/10/06 06:36:25;;;;;;;12.17;7.90;;;13.90;99.90;;;;;;4980144;28;20484;-62
2023/10/06 06:38:55;;;;;;;7.50;6.80;;;13.90;99.90;;;;;;4979181;28;20476;-62
2023/10/06 06:41:23;;;;;;;7.87;6.40;;;13.90;99.90;;;;;;4984640;28;20505;-62
2023/10/06 06:43:57;;;;;;;7.57;6.87;;;13.90;99.90;;;;;;4989259;28;20871;-62
2023/10/06 06:46:29;;;;;;;10.43;7.30;;;13.80;99.90;;;;;;4987830;28;20487;-62
2023/10/06 06:48:59;;;;;;;10.67;7.93;;;13.90;99.90;;;;;;4993066;28;20472;-63
2023/10/06 06:51:30;;;;;;;9.80;6.60;;;13.90;99.90;;;;;;4996079;28;20475;-62
2023/10/06 06:53:59;;;;;;;9.67;7.57;;;13.90;99.90;;;;;;4991683;28;20497;-62
2023/10/06 06:56:28;;;;;;;10.67;7.27;;;13.90;99.90;;;;;;4991296;28;20984;-62
2023/10/06 06:58:59;;;;;;;13.00;7.07;;;13.90;99.90;;;;;;4987424;28;20476;-62
2023/10/06 07:01:28;;;;;;;9.93;6.90;;;13.90;99.90;;;;;;4979243;28;20481;-62
2023/10/06 07:04:00;;;;;;;8.10;6.83;;;13.80;99.90;;;;;;4984348;28;20522;-59
2023/10/06 07:06:30;;;;;;;13.10;7.10;;;13.90;99.90;;;;;;4989020;28;20897;-61
2023/10/06 07:09:00;;;;;;;8.67;7.73;;;13.90;99.90;;;;;;4993143;28;20473;-62
2023/10/06 07:11:28;;;;;;;9.37;7.17;;;13.90;99.90;;;;;;4987401;28;20487;-62
2023/10/06 07:13:56;;;;;;;9.37;7.30;;;13.90;99.90;;;;;;4992203;28;20492;-61
2023/10/06 07:16:25;;;;;;;7.07;6.33;;;14.00;99.90;;;;;;4999704;28;20553;-62
2023/10/06 07:18:53;;;;;;;9.30;6.93;;;14.00;99.90;;;;;;4999292;28;20824;-62
2023/10/06 07:21:22;;;;;;;11.20;7.03;;;14.00;99.90;;;;;;4993309;28;20507;-62
2023/10/06 07:23:51;;;;;;;8.80;7.60;;;14.00;99.90;;;;;;4996724;28;20499;-61
2023/10/06 07:26:22;;;;;;;9.57;7.07;;;14.00;99.90;;;;;;4995325;28;21103;-62
2023/10/06 07:28:53;;;;;;;8.80;7.00;;;14.00;99.90;;;;;;4995886;28;20475;-62
2023/10/06 07:31:21;;;;;;;9.80;7.00;;;13.90;99.90;;;;;;4996103;28;20476;-62
2023/10/06 07:33:51;;;;;;;9.43;7.63;;;13.90;99.90;;;;;;4995534;28;20480;-62
2023/10/06 07:36:19;;;;;;;9.47;7.07;;;13.90;99.90;;;;;;4990215;28;20484;-62
2023/10/06 07:38:48;;;;;;;11.40;7.40;;;13.90;99.90;;;;;;4995330;28;21206;-62
2023/10/06 07:41:19;;;;;;;9.47;7.53;;;13.80;99.90;;;;;;4999703;28;20485;-62
2023/10/06 07:43:48;;;;;;;8.77;7.10;;;13.80;99.90;;;;;;4999491;28;20548;-61
2023/10/06 07:46:17;;;;;;;12.47;7.20;;;13.80;99.90;;;;;;4996795;28;21036;-62
2023/10/06 07:48:46;;;;;;;8.30;7.00;;;13.90;99.90;;;;;;4997193;28;20541;-62
2023/10/06 07:51:16;;;;;;;10.83;7.37;;;13.90;99.90;;;;;;5000218;28;21090;-62
2023/10/06 07:53:44;;;;;;;10.03;7.37;;;14.00;99.90;;;;;;5001318;28;20503;-62
2023/10/06 07:56:14;;;;;;;10.57;7.30;;;14.00;99.90;;;;;;4997392;28;20500;-62
2023/10/06 07:58:43;;;;;;;8.07;7.00;;;14.10;99.90;;;;;;4997244;28;20480;-62
2023/10/06 08:01:13;;;;;;;8.23;7.20;;;14.00;99.90;;;;;;4998223;28;20483;-62
2023/10/06 08:03:43;;;;;;;9.30;5.73;;;14.00;99.90;;;;;;4996564;28;20495;-62
2023/10/06 08:06:12;;;;;;;9.13;7.30;;;14.10;99.90;;;;;;4998860;28;20488;-62
2023/10/06 08:08:40;;;;;;;10.07;7.10;;;14.10;99.90;;;;;;4997217;28;20483;-62
2023/10/06 08:11:09;;;;;;;11.60;6.67;;;14.10;99.90;;;;;;4997745;28;20476;-62
2023/10/06 08:13:38;;;;;;;10.73;7.10;;;14.20;99.90;;;;;;4999487;28;20491;-62
2023/10/06 08:16:07;;;;;;;10.20;7.20;;;14.20;99.90;;;;;;4998436;28;20484;-62
2023/10/06 08:18:37;;;;;;;9.47;6.83;;;14.20;99.90;;;;;;4995847;28;20476;-62
2023/10/06 08:21:05;;;;;;;9.83;7.20;;;14.30;99.90;;;;;;4997987;28;20886;-62
2023/10/06 08:23:34;;;;;;;8.60;6.80;;;14.30;99.90;;;;;;4999330;28;20638;-62
2023/10/06 08:26:07;;;;;;;10.67;6.80;;;14.30;99.90;;;;;;4996010;28;21099;-62
2023/10/06 08:28:36;;;;;;;9.10;6.60;;;14.30;99.90;;;;;;4996189;28;20468;-62
2023/10/06 08:31:04;;;;;;;7.30;6.50;;;14.30;99.90;;;;;;4995049;28;20507;-63
2023/10/06 08:33:35;;;;;;;7.30;6.60;;;14.30;99.90;;;;;;4998034;28;20487;-62
2023/10/06 08:36:08;;;;;;;7.90;5.87;;;14.30;99.90;;;;;;4995269;28;20579;-62
2023/10/06 08:38:36;;;;;;;7.93;6.30;;;14.30;99.90;;;;;;4992132;28;20724;-62
2023/10/06 08:41:05;;;;;;;7.70;6.10;;;14.30;99.90;;;;;;4995780;28;20555;-62
2023/10/06 08:43:38;;;;;;;8.13;6.50;;;14.30;99.90;;;;;;4996235;28;20531;-62
2023/10/06 08:46:08;;;;;;;10.67;6.30;;;14.30;99.90;;;;;;4995885;28;20495;-63
2023/10/06 08:48:38;;;;;;;7.33;6.60;;;14.40;99.90;;;;;;4996320;28;20920;-63
2023/10/06 08:51:14;;;;;;;8.77;7.07;;;14.40;99.90;;;;;;4997609;28;20472;-63
2023/10/06 08:53:45;;;;;;;8.10;6.00;;;14.40;99.90;;;;;;4995991;28;20598;-62
2023/10/06 08:56:14;;;;;;;8.00;7.10;;;14.50;99.90;;;;;;4991419;28;20553;-62
2023/10/06 08:58:44;;;;;;;9.80;6.80;;;14.50;99.90;;;;;;4987714;28;20554;-62
2023/10/06 09:01:14;;;;;;;8.90;6.70;;;14.50;99.90;;;;;;4989441;28;20481;-62
2023/10/06 09:03:42;;;;;;;8.10;6.60;;;14.50;99.90;;;;;;4988693;28;22678;-62
2023/10/06 09:06:12;;;;;;;7.47;6.70;;;14.50;99.90;;;;;;4993356;28;20496;-62
2023/10/06 09:08:42;;;;;;;7.40;6.70;;;14.50;99.90;;;;;;4994959;28;20860;-62
2023/10/06 09:11:11;;;;;;;9.47;6.20;;;14.50;99.90;;;;;;4993132;28;20499;-63
2023/10/06 09:13:41;;;;;;;6.37;5.73;;;14.50;99.90;;;;;;4995547;28;20562;-62
2023/10/06 09:16:11;;;;;;;8.17;6.40;;;14.60;99.90;;;;;;4991380;28;20593;-63
2023/10/06 09:18:39;;;;;;;8.20;5.80;;;14.50;99.90;;;;;;4991886;28;21093;-65
2023/10/06 09:21:14;;;;;;;7.67;6.20;;;14.50;99.90;;;;;;4988997;28;20563;-63
2023/10/06 09:23:42;;;;;;;6.30;5.60;;;14.50;99.90;;;;;;4987404;28;20527;-63
2023/10/06 09:26:12;;;;;;;6.73;5.83;;;14.50;99.90;;;;;;4989940;28;20501;-62
2023/10/06 09:28:50;;;;;;;6.97;6.00;;;14.60;99.90;;;;;;4992772;28;20473;-62
2023/10/06 09:31:35;;;;;;;12.50;5.97;;;14.60;99.90;;;;;;4995994;28;20474;-62
2023/10/06 09:34:07;;;;;;;11.07;6.80;;;14.60;99.90;;;;;;4995086;28;21056;-62
2023/10/06 09:36:38;;;;;;;9.20;6.40;;;14.60;99.90;;;;;;4991818;28;20480;-62
2023/10/06 09:39:14;;;;;;;9.00;6.03;;;14.70;99.90;;;;;;4987654;28;20460;-62
2023/10/06 09:41:42;;;;;;;6.93;6.23;;;14.70;99.90;;;;;;4995553;28;20567;-62
2023/10/06 09:44:12;;;;;;;10.67;6.13;;;14.70;99.90;;;;;;4994810;28;20496;-62
2023/10/06 09:46:42;;;;;;;7.93;5.20;;;14.70;99.90;;;;;;4992629;28;20538;-63
2023/10/06 09:49:15;;;;;;;10.40;6.80;;;14.70;99.90;;;;;;4995125;28;20551;-62
2023/10/06 09:51:46;;;;;;;10.73;5.90;;;14.80;99.90;;;;;;4987057;28;20465;-62
2023/10/06 09:54:15;;;;;;;9.30;5.63;;;14.80;99.90;;;;;;4993221;28;20506;-63
2023/10/06 09:56:45;;;;;;;9.03;6.07;;;14.80;99.90;;;;;;4993554;28;20563;-62
2023/10/06 09:59:13;;;;;;;8.60;6.13;;;14.80;99.90;;;;;;4993901;28;20590;-62
2023/10/06 10:01:44;;;;;;;8.67;6.77;;;14.80;99.90;;;;;;4992156;28;20491;-63
2023/10/06 10:04:12;;;;;;;8.97;7.07;;;14.80;99.90;;;;;;4983172;28;20942;-63
2023/10/06 10:06:43;;;;;;;10.60;6.57;;;14.80;99.90;;;;;;4991844;28;20809;-62
2023/10/06 10:09:16;;;;;;;6.20;5.60;;;14.80;99.90;;;;;;4977560;28;20473;-62
2023/10/06 10:11:48;;;;;;;8.50;6.10;;;14.80;99.90;;;;;;4990287;28;20487;-63
2023/10/06 10:14:37;;;;;;;8.10;6.33;;;14.80;99.90;;;;;;4992729;28;20914;-63
2023/10/06 10:17:18;;;;;;;8.73;5.70;;;14.80;99.90;;;;;;4990626;28;20480;-62
2023/10/06 10:19:48;;;;;;;8.17;6.37;;;14.80;99.90;;;;;;4983331;28;20484;-63
2023/10/06 10:22:16;;;;;;;6.63;5.93;;;14.80;99.90;;;;;;4987549;28;20643;-62
2023/10/06 10:24:45;;;;;;;7.17;6.00;;;14.80;99.90;;;;;;4986939;28;20497;-62
2023/10/06 10:27:20;;;;;;;7.93;6.23;;;14.70;99.90;;;;;;4981523;28;20473;-62
2023/10/06 10:29:49;;;;;;;7.17;6.47;;;14.70;99.90;;;;;;4990314;28;20495;-62
2023/10/06 10:32:22;;;;;;;7.17;6.47;;;14.70;99.90;;;;;;4993968;28;21019;-62
2023/10/06 10:35:08;;;;;;;8.20;6.67;;;14.70;99.90;;;;;;4994777;28;20583;-62
2023/10/06 10:37:55;;;;;;;7.90;6.47;;;14.60;99.90;;;;;;4995259;28;20977;-62
2023/10/06 10:40:26;;;;;;;7.30;6.70;;;14.60;99.90;;;;;;4988623;28;20526;-63
2023/10/06 10:43:01;;;;;;;8.40;6.93;;;14.60;99.90;;;;;;4989463;28;20496;-62
2023/10/06 10:45:35;;;;;;;8.07;6.40;;;14.60;99.90;;;;;;4993381;28;20587;-62
2023/10/06 10:48:10;;;;;;;7.00;6.30;;;14.60;99.90;;;;;;4987988;28;20550;-62
2023/10/06 10:50:59;;;;;;;6.73;6.03;;;14.50;99.90;;;;;;4991108;28;20472;-62
2023/10/06 10:53:32;;;;;;;6.10;5.50;;;14.50;99.90;;;;;;4989307;28;20551;-62
2023/10/06 10:56:02;;;;;;;7.90;6.30;;;14.60;99.90;;;;;;4992725;28;21076;-62
2023/10/06 10:58:55;;;;;;;7.17;6.20;;;14.60;99.90;;;;;;4996215;28;21026;-62
2023/10/06 11:01:31;;;;;;;8.37;7.03;;;14.50;99.90;;;;;;4995645;28;20472;-62
2023/10/06 11:04:31;;;;;;;7.10;6.40;;;14.60;99.90;;;;;;4992769;28;20492;-62
2023/10/06 11:07:09;;;;;;;8.00;6.43;;;14.60;99.90;;;;;;4985341;28;20988;-62
2023/10/06 11:09:41;;;;;;;10.80;7.20;;;14.50;99.90;;;;;;4977906;28;20469;-62
2023/10/06 11:12:25;;;;;;;7.70;6.70;;;14.50;99.90;;;;;;4982779;28;20469;-62
2023/10/06 11:15:02;;;;;;;7.63;6.43;;;14.50;99.90;;;;;;4985081;28;21705;-62
2023/10/06 11:17:32;;;;;;;8.87;6.93;;;14.60;99.90;;;;;;4979359;28;20480;-63
2023/10/06 11:20:12;;;;;;;9.43;6.80;;;14.60;99.90;;;;;;4981024;28;20534;-62
2023/10/06 11:22:41;;;;;;;8.50;7.10;;;14.60;99.90;;;;;;4973590;28;20492;-63
2023/10/06 11:25:10;;;;;;;9.73;7.53;;;14.70;99.90;;;;;;4980002;28;20493;-63
2023/10/06 11:27:41;;;;;;;11.00;8.03;;;14.70;99.90;;;;;;4983775;28;20468;-62
2023/10/06 11:30:12;;;;;;;8.33;7.27;;;14.70;99.90;;;;;;4979579;28;20559;-62
2023/10/06 11:32:41;;;;;;;9.73;7.53;;;14.70;99.90;;;;;;4982569;28;20567;-63
2023/10/06 11:35:11;;;;;;;9.20;7.87;;;14.70;99.90;;;;;;4981059;28;20488;-62
2023/10/06 11:37:40;;;;;;;8.57;7.73;;;14.70;99.90;;;;;;4981248;28;20498;-62
2023/10/06 11:40:12;;;;;;;8.00;7.03;;;14.70;99.90;;;;;;4973650;28;20474;-62
2023/10/06 11:42:42;;;;;;;7.80;7.00;;;14.70;99.90;;;;;;4981803;28;20502;-63
2023/10/06 11:45:25;;;;;;;7.27;6.57;;;14.80;99.90;;;;;;4978275;28;20500;-62
2023/10/06 11:47:54;;;;;;;7.57;6.53;;;14.80;99.90;;;;;;4978077;28;21079;-62
2023/10/06 11:50:28;;;;;;;7.23;6.57;;;14.80;99.90;;;;;;4975312;28;20464;-62
2023/10/06 11:52:56;;;;;;;7.20;6.50;;;14.90;99.90;;;;;;4978269;28;20583;-63
2023/10/06 11:55:35;;;;;;;8.03;7.23;;;14.90;99.90;;;;;;4983713;28;20487;-63
2023/10/06 11:58:06;;;;;;;9.00;7.70;;;14.90;99.90;;;;;;4987701;28;20610;-62
2023/10/06 12:00:38;;;;;;;8.30;6.60;;;15.00;99.90;;;;;;4990261;28;20611;-63
2023/10/06 12:03:08;;;;;;;9.60;8.07;;;14.90;99.90;;;;;;4990927;28;21049;-63
2023/10/06 12:05:36;;;;;;;9.80;7.10;;;14.90;99.90;;;;;;4989628;28;20591;-63
2023/10/06 12:08:05;;;;;;;7.60;6.87;;;14.90;99.90;;;;;;4990238;28;20480;-63
2023/10/06 12:10:33;;;;;;;11.23;6.80;;;14.90;99.90;;;;;;4988284;28;20991;-63
2023/10/06 12:13:05;;;;;;;8.47;7.67;;;14.90;99.90;;;;;;4985271;28;20523;-63
2023/10/06 12:15:35;;;;;;;8.80;7.30;;;14.90;99.90;;;;;;4986279;28;21043;-63
2023/10/06 12:18:04;;;;;;;8.60;7.70;;;15.00;99.90;;;;;;4983810;28;20500;-63
2023/10/06 12:20:35;;;;;;;9.87;8.87;;;15.00;99.90;;;;;;4985920;28;23781;-63
2023/10/06 12:23:03;;;;;;;9.27;7.50;;;15.00;99.90;;;;;;4988400;28;21672;-63
2023/10/06 12:25:31;;;;;;;8.13;7.33;;;15.00;99.90;;;;;;4986378;28;20499;-63
2023/10/06 12:28:00;;;;;;;9.40;7.67;;;15.10;99.90;;;;;;4990666;28;20476;-63
2023/10/06 12:30:29;;;;;;;10.60;7.90;;;15.10;99.90;;;;;;4986415;28;20475;-63
2023/10/06 12:32:59;;;;;;;9.07;7.47;;;15.10;99.90;;;;;;4977091;28;20499;-63
2023/10/06 12:35:30;;;;;;;7.53;6.70;;;15.10;99.90;;;;;;4981275;28;20497;-63
2023/10/06 12:37:58;;;;;;;7.63;6.83;;;15.20;99.90;;;;;;4991343;28;20987;-63
2023/10/06 12:40:29;;;;;;;8.40;7.40;;;15.30;99.90;;;;;;4987596;28;20472;-63
2023/10/06 12:42:57;;;;;;;11.53;7.57;;;15.40;99.90;;;;;;4986003;28;22173;-63
2023/10/06 12:45:25;;;;;;;9.30;6.70;;;15.50;99.90;;;;;;4989325;28;20514;-63
2023/10/06 12:47:58;;;;;;;9.20;6.03;;;15.60;99.90;;;;;;4989436;28;20473;-62
2023/10/06 12:50:30;;;;;;;7.20;6.50;;;15.70;99.90;;;;;;4991780;28;20486;-62
2023/10/06 12:52:58;;;;;;;7.97;6.30;;;15.80;99.90;;;;;;4984017;28;20884;-64
2023/10/06 12:55:27;;;;;;;7.70;6.70;;;15.80;99.90;;;;;;4986034;28;21027;-63
2023/10/06 12:57:55;;;;;;;7.60;6.60;;;15.90;99.90;;;;;;4990261;28;20484;-64
2023/10/06 13:00:23;;;;;;;6.93;6.30;;;15.90;99.90;;;;;;4991366;28;20566;-61